createdAt,value
2023-08-08T00:01:06.025Z,27.07
2023-08-08T00:02:11.239Z,26.98
2023-08-08T00:03:19.160Z,26.54
2023-08-08T00:04:24.306Z,26.82
2023-08-08T00:05:33.761Z,26.77
2023-08-08T00:06:40.431Z,26.77
2023-08-08T00:07:51.864Z,26.65
2023-08-08T00:08:56.818Z,26.30
2023-08-08T00:10:05.443Z,26.30
2023-08-08T00:11:10.265Z,26.12
2023-08-08T00:12:18.498Z,26.06
2023-08-08T00:13:23.801Z,26.03
2023-08-08T00:14:31.469Z,25.54
2023-08-08T00:15:36.471Z,25.89
2023-08-08T00:16:44.266Z,25.81
2023-08-08T00:17:50.035Z,24.85
2023-08-08T00:18:58.255Z,25.70
2023-08-08T00:20:03.155Z,25.69
2023-08-08T00:21:11.611Z,25.64
2023-08-08T00:22:16.992Z,25.65
2023-08-08T00:23:27.180Z,25.63
2023-08-08T00:24:34.865Z,25.70
2023-08-08T00:25:42.794Z,25.68
2023-08-08T00:26:48.053Z,25.67
2023-08-08T00:27:56.775Z,25.02
2023-08-08T00:29:02.094Z,25.20
2023-08-08T00:30:10.855Z,25.15
2023-08-08T00:31:18.952Z,25.14
2023-08-08T00:32:26.948Z,25.15
2023-08-08T00:33:31.898Z,25.10
2023-08-08T00:34:40.205Z,25.10
2023-08-08T00:35:46.553Z,25.14
2023-08-08T00:36:55.842Z,25.08
2023-08-08T00:38:01.000Z,24.94
2023-08-08T00:39:11.698Z,24.88
2023-08-08T00:40:16.544Z,24.91
2023-08-08T00:41:27.600Z,24.90
2023-08-08T00:42:32.515Z,24.94
2023-08-08T00:43:40.392Z,24.86
2023-08-08T00:44:45.211Z,24.93
2023-08-08T00:45:53.291Z,24.91
2023-08-08T00:46:58.526Z,24.98
2023-08-08T00:48:07.273Z,25.14
2023-08-08T00:49:12.230Z,25.20
2023-08-08T00:50:20.384Z,25.30
2023-08-08T00:51:27.594Z,25.14
2023-08-08T00:52:35.978Z,25.38
2023-08-08T00:53:40.883Z,25.34
2023-08-08T00:54:53.629Z,25.23
2023-08-08T00:56:00.568Z,25.36
2023-08-08T00:57:09.104Z,25.37
2023-08-08T00:58:14.826Z,25.25
2023-08-08T00:59:24.687Z,25.39
2023-08-08T01:00:30.039Z,25.34
2023-08-08T01:01:38.671Z,25.46
2023-08-08T01:02:44.519Z,25.50
2023-08-08T01:03:54.080Z,25.51
2023-08-08T01:04:59.506Z,25.52
2023-08-08T01:06:18.006Z,25.57
2023-08-08T01:07:32.879Z,25.52
2023-08-08T01:08:48.353Z,25.59
2023-08-08T01:10:08.919Z,25.53
2023-08-08T01:11:18.302Z,25.62
2023-08-08T01:12:26.040Z,25.70
2023-08-08T01:13:37.206Z,25.78
2023-08-08T01:14:45.170Z,25.80
2023-08-08T01:15:55.637Z,25.83
2023-08-08T01:17:05.082Z,25.84
2023-08-08T01:18:16.522Z,25.77
2023-08-08T01:19:30.425Z,25.83
2023-08-08T01:20:39.825Z,25.79
2023-08-08T01:21:50.945Z,25.85
2023-08-08T01:23:18.172Z,25.78
2023-08-08T01:24:30.935Z,25.81
2023-08-08T01:25:40.950Z,25.70
2023-08-08T01:26:46.771Z,25.71
2023-08-08T01:27:55.723Z,25.59
2023-08-08T01:29:02.265Z,25.61
2023-08-08T01:30:12.822Z,25.61
2023-08-08T01:31:18.923Z,25.52
2023-08-08T01:32:26.491Z,25.51
2023-08-08T01:33:31.821Z,25.54
2023-08-08T01:34:41.439Z,25.51
2023-08-08T01:35:52.719Z,25.47
2023-08-08T01:37:05.407Z,25.49
2023-08-08T01:38:19.570Z,25.41
2023-08-08T01:39:33.113Z,25.46
2023-08-08T01:40:39.043Z,25.48
2023-08-08T01:41:49.118Z,25.46
2023-08-08T01:42:56.104Z,25.42
2023-08-08T01:44:05.553Z,25.40
2023-08-08T01:45:11.875Z,25.42
2023-08-08T01:46:20.569Z,25.42
2023-08-08T01:47:28.330Z,25.44
2023-08-08T01:48:36.491Z,25.45
2023-08-08T01:49:41.314Z,25.36
2023-08-08T01:50:48.959Z,25.42
2023-08-08T01:51:54.266Z,25.30
2023-08-08T01:53:02.828Z,25.29
2023-08-08T01:54:08.250Z,25.05
2023-08-08T01:55:19.134Z,25.48
2023-08-08T01:56:24.126Z,25.51
2023-08-08T01:57:32.146Z,25.63
2023-08-08T01:58:37.764Z,25.72
2023-08-08T01:59:45.943Z,25.69
2023-08-08T02:00:51.141Z,25.60
2023-08-08T02:01:59.372Z,25.70
2023-08-08T02:03:05.019Z,25.67
2023-08-08T02:04:12.639Z,25.56
2023-08-08T02:05:17.872Z,25.58
2023-08-08T02:06:27.338Z,25.54
2023-08-08T02:07:32.262Z,25.38
2023-08-08T02:08:41.826Z,25.39
2023-08-08T02:09:47.867Z,25.29
2023-08-08T02:10:58.785Z,25.40
2023-08-08T02:12:03.742Z,25.22
2023-08-08T02:13:11.501Z,25.28
2023-08-08T02:14:16.395Z,25.21
2023-08-08T02:15:24.123Z,25.18
2023-08-08T02:16:29.467Z,25.12
2023-08-08T02:17:37.449Z,25.07
2023-08-08T02:18:43.174Z,25.05
2023-08-08T02:19:50.688Z,25.04
2023-08-08T02:20:55.527Z,25.07
2023-08-08T02:22:03.684Z,25.19
2023-08-08T02:23:08.758Z,25.11
2023-08-08T02:24:18.084Z,25.27
2023-08-08T02:25:23.280Z,25.16
2023-08-08T02:26:33.709Z,25.05
2023-08-08T02:27:38.898Z,25.01
2023-08-08T02:28:50.133Z,24.95
2023-08-08T02:29:55.738Z,24.96
2023-08-08T02:31:03.710Z,25.02
2023-08-08T02:32:09.588Z,24.97
2023-08-08T02:33:17.154Z,24.93
2023-08-08T02:34:21.974Z,25.03
2023-08-08T02:35:29.638Z,25.02
2023-08-08T02:36:35.139Z,25.16
2023-08-08T02:37:42.847Z,25.14
2023-08-08T02:38:48.426Z,25.21
2023-08-08T02:39:56.322Z,25.15
2023-08-08T02:41:02.121Z,25.19
2023-08-08T02:42:12.955Z,25.08
2023-08-08T02:43:18.448Z,24.96
2023-08-08T02:44:25.962Z,24.85
2023-08-08T02:45:30.884Z,24.49
2023-08-08T02:46:39.344Z,24.52
2023-08-08T02:47:45.096Z,24.69
2023-08-08T02:48:52.762Z,24.66
2023-08-08T02:49:57.818Z,24.66
2023-08-08T02:51:05.576Z,24.63
2023-08-08T02:52:10.937Z,24.66
2023-08-08T02:53:18.572Z,24.50
2023-08-08T02:54:26.261Z,24.58
2023-08-08T02:55:34.148Z,24.55
2023-08-08T02:56:39.023Z,24.62
2023-08-08T02:57:49.489Z,24.60
2023-08-08T02:58:57.123Z,24.64
2023-08-08T03:00:05.872Z,24.68
2023-08-08T03:01:16.998Z,24.68
2023-08-08T03:02:26.688Z,24.53
2023-08-08T03:03:31.985Z,24.74
2023-08-08T03:04:39.683Z,24.66
2023-08-08T03:05:47.615Z,24.22
2023-08-08T03:06:57.812Z,24.57
2023-08-08T03:08:03.660Z,24.67
2023-08-08T03:09:11.688Z,24.57
2023-08-08T03:10:17.979Z,24.05
2023-08-08T03:11:26.099Z,24.44
2023-08-08T03:12:30.936Z,24.41
2023-08-08T03:13:43.798Z,24.38
2023-08-08T03:14:50.304Z,24.33
2023-08-08T03:15:58.726Z,24.41
2023-08-08T03:17:03.704Z,24.50
2023-08-08T03:18:12.148Z,24.56
2023-08-08T03:19:17.042Z,24.56
2023-08-08T03:20:24.978Z,24.63
2023-08-08T03:21:30.185Z,24.48
2023-08-08T03:22:38.481Z,24.50
2023-08-08T03:23:46.716Z,24.58
2023-08-08T03:24:54.317Z,24.66
2023-08-08T03:25:59.308Z,24.67
2023-08-08T03:27:08.072Z,24.58
2023-08-08T03:28:13.615Z,24.63
2023-08-08T03:29:23.967Z,24.51
2023-08-08T03:30:29.318Z,24.41
2023-08-08T03:31:36.970Z,24.61
2023-08-08T03:32:44.685Z,24.48
2023-08-08T03:33:52.532Z,24.57
2023-08-08T03:34:57.427Z,24.63
2023-08-08T03:36:06.942Z,24.69
2023-08-08T03:37:14.430Z,24.42
2023-08-08T03:38:19.612Z,24.72
2023-08-08T03:39:27.309Z,24.72
2023-08-08T03:40:33.055Z,24.62
2023-08-08T03:41:41.454Z,24.70
2023-08-08T03:42:46.301Z,24.76
2023-08-08T03:43:54.029Z,24.85
2023-08-08T03:45:01.847Z,24.86
2023-08-08T03:46:13.433Z,24.84
2023-08-08T03:47:20.624Z,24.83
2023-08-08T03:48:29.721Z,24.77
2023-08-08T03:49:35.140Z,24.79
2023-08-08T03:50:42.805Z,24.83
2023-08-08T03:51:47.798Z,24.85
2023-08-08T03:52:55.385Z,24.88
2023-08-08T03:54:00.827Z,24.91
2023-08-08T03:55:09.673Z,24.96
2023-08-08T03:56:16.420Z,24.96
2023-08-08T03:57:24.932Z,24.95
2023-08-08T03:58:29.966Z,24.95
2023-08-08T03:59:37.572Z,24.99
2023-08-08T04:00:48.018Z,25.06
2023-08-08T04:01:55.571Z,25.08
2023-08-08T04:03:00.738Z,25.18
2023-08-08T04:04:08.728Z,25.13
2023-08-08T04:05:14.039Z,25.16
2023-08-08T04:06:21.644Z,25.08
2023-08-08T04:07:26.597Z,25.17
2023-08-08T04:08:34.117Z,25.20
2023-08-08T04:09:39.097Z,25.20
2023-08-08T04:10:46.668Z,25.30
2023-08-08T04:11:51.720Z,25.37
2023-08-08T04:12:59.349Z,25.37
2023-08-08T04:14:04.171Z,25.39
2023-08-08T04:15:12.656Z,25.43
2023-08-08T04:16:20.834Z,25.36
2023-08-08T04:17:28.868Z,25.58
2023-08-08T04:18:33.720Z,25.62
2023-08-08T04:19:41.309Z,25.56
2023-08-08T04:20:47.636Z,25.19
2023-08-08T04:21:55.188Z,25.67
2023-08-08T04:23:00.108Z,25.62
2023-08-08T04:24:09.523Z,25.54
2023-08-08T04:25:15.029Z,25.63
2023-08-08T04:26:22.557Z,25.66
2023-08-08T04:27:27.385Z,25.66
2023-08-08T04:28:34.966Z,25.69
2023-08-08T04:29:39.989Z,25.70
2023-08-08T04:30:44.802Z,25.67
2023-08-08T04:31:55.056Z,25.57
2023-08-08T04:33:00.002Z,25.58
2023-08-08T04:34:08.767Z,25.50
2023-08-08T04:35:13.801Z,25.42
2023-08-08T04:36:21.368Z,25.53
2023-08-08T04:37:26.222Z,25.58
2023-08-08T04:38:33.722Z,25.62
2023-08-08T04:39:38.653Z,25.65
2023-08-08T04:40:46.542Z,25.63
2023-08-08T04:41:51.938Z,25.71
2023-08-08T04:42:59.467Z,25.70
2023-08-08T04:44:04.456Z,25.67
2023-08-08T04:45:13.025Z,25.61
2023-08-08T04:46:17.987Z,25.56
2023-08-08T04:47:28.242Z,25.54
2023-08-08T04:48:34.383Z,25.38
2023-08-08T04:49:43.933Z,25.53
2023-08-08T04:50:49.930Z,25.52
2023-08-08T04:51:57.880Z,25.60
2023-08-08T04:53:03.397Z,25.51
2023-08-08T04:54:10.856Z,25.47
2023-08-08T04:55:15.819Z,25.67
2023-08-08T04:56:23.394Z,25.70
2023-08-08T04:57:28.178Z,25.68
2023-08-08T04:58:36.388Z,25.73
2023-08-08T04:59:41.350Z,25.63
2023-08-08T05:00:49.880Z,25.69
2023-08-08T05:01:54.787Z,25.71
2023-08-08T05:03:05.540Z,25.77
2023-08-08T05:04:12.313Z,25.72
2023-08-08T05:05:19.902Z,25.66
2023-08-08T05:06:24.796Z,25.81
2023-08-08T05:07:32.935Z,25.85
2023-08-08T05:08:37.826Z,25.92
2023-08-08T05:09:45.449Z,25.92
2023-08-08T05:10:50.239Z,25.90
2023-08-08T05:11:58.458Z,24.76
2023-08-08T05:13:04.938Z,25.85
2023-08-08T05:14:12.472Z,25.84
2023-08-08T05:15:17.458Z,25.85
2023-08-08T05:16:26.400Z,25.87
2023-08-08T05:17:35.005Z,25.87
2023-08-08T05:18:46.019Z,25.88
2023-08-08T05:19:50.870Z,25.87
2023-08-08T05:20:58.382Z,25.88
2023-08-08T05:22:04.326Z,25.95
2023-08-08T05:23:11.938Z,25.92
2023-08-08T05:24:16.749Z,25.94
2023-08-08T05:25:24.255Z,25.64
2023-08-08T05:26:29.169Z,25.83
2023-08-08T05:27:36.669Z,25.87
2023-08-08T05:28:41.882Z,25.85
2023-08-08T05:29:49.456Z,25.83
2023-08-08T05:30:54.744Z,25.79
2023-08-08T05:32:02.708Z,25.78
2023-08-08T05:33:08.170Z,25.86
2023-08-08T05:34:18.487Z,25.91
2023-08-08T05:35:23.326Z,25.87
2023-08-08T05:36:30.896Z,25.89
2023-08-08T05:37:35.771Z,25.89
2023-08-08T05:38:43.411Z,25.90
2023-08-08T05:39:48.228Z,25.96
2023-08-08T05:40:55.821Z,25.98
2023-08-08T05:42:00.637Z,26.02
2023-08-08T05:43:08.575Z,26.04
2023-08-08T05:44:13.368Z,25.99
2023-08-08T05:45:20.973Z,26.04
2023-08-08T05:46:26.170Z,26.04
2023-08-08T05:47:33.702Z,26.05
2023-08-08T05:48:38.632Z,26.03
2023-08-08T05:49:49.338Z,26.02
2023-08-08T05:50:54.777Z,25.59
2023-08-08T05:52:02.934Z,26.03
2023-08-08T05:53:08.376Z,26.09
2023-08-08T05:54:16.644Z,26.09
2023-08-08T05:55:21.693Z,26.01
2023-08-08T05:56:29.187Z,26.15
2023-08-08T05:57:34.107Z,26.12
2023-08-08T05:58:41.805Z,26.07
2023-08-08T05:59:46.769Z,26.08
2023-08-08T06:00:54.783Z,26.08
2023-08-08T06:02:00.969Z,26.08
2023-08-08T06:03:09.478Z,26.03
2023-08-08T06:04:14.496Z,26.10
2023-08-08T06:05:27.779Z,26.10
2023-08-08T06:06:32.638Z,26.10
2023-08-08T06:07:40.143Z,26.11
2023-08-08T06:08:44.997Z,26.02
2023-08-08T06:09:52.565Z,26.08
2023-08-08T06:10:57.511Z,26.06
2023-08-08T06:12:05.115Z,26.02
2023-08-08T06:13:10.002Z,26.09
2023-08-08T06:14:18.715Z,26.09
2023-08-08T06:15:23.738Z,26.15
2023-08-08T06:16:31.592Z,26.11
2023-08-08T06:17:36.441Z,25.76
2023-08-08T06:18:43.929Z,26.16
2023-08-08T06:19:48.963Z,26.19
2023-08-08T06:20:59.173Z,26.21
2023-08-08T06:22:04.987Z,26.17
2023-08-08T06:23:12.545Z,26.13
2023-08-08T06:24:17.386Z,26.06
2023-08-08T06:25:25.209Z,26.11
2023-08-08T06:26:30.040Z,26.02
2023-08-08T06:27:37.536Z,26.10
2023-08-08T06:28:43.083Z,26.09
2023-08-08T06:29:50.644Z,26.04
2023-08-08T06:30:55.491Z,26.03
2023-08-08T06:32:03.448Z,26.00
2023-08-08T06:33:08.461Z,26.00
2023-08-08T06:34:16.984Z,25.92
2023-08-08T06:35:21.757Z,25.99
2023-08-08T06:36:32.030Z,25.98
2023-08-08T06:37:36.823Z,25.97
2023-08-08T06:38:44.669Z,25.93
2023-08-08T06:39:49.506Z,25.97
2023-08-08T06:40:57.909Z,25.92
2023-08-08T06:42:03.066Z,25.92
2023-08-08T06:43:27.936Z,25.94
2023-08-08T06:44:35.842Z,25.94
2023-08-08T06:45:44.251Z,25.88
2023-08-08T06:46:49.110Z,25.98
2023-08-08T06:47:56.728Z,25.89
2023-08-08T06:49:03.069Z,25.80
2023-08-08T06:50:11.834Z,25.92
2023-08-08T06:51:16.681Z,25.89
2023-08-08T06:52:26.972Z,25.87
2023-08-08T06:53:31.801Z,25.85
2023-08-08T06:54:39.499Z,25.89
2023-08-08T06:55:44.424Z,25.92
2023-08-08T06:56:51.974Z,25.49
2023-08-08T06:57:56.819Z,25.78
2023-08-08T06:59:04.360Z,25.75
2023-08-08T07:00:10.434Z,25.84
2023-08-08T07:01:18.146Z,25.85
2023-08-08T07:02:23.146Z,25.94
2023-08-08T07:03:30.918Z,25.82
2023-08-08T07:04:35.820Z,25.88
2023-08-08T07:05:43.775Z,25.91
2023-08-08T07:06:48.575Z,25.92
2023-08-08T07:08:00.567Z,25.89
2023-08-08T07:09:05.672Z,25.86
2023-08-08T07:10:14.519Z,25.89
2023-08-08T07:11:19.279Z,25.93
2023-08-08T07:12:27.269Z,25.99
2023-08-08T07:13:32.220Z,25.95
2023-08-08T07:14:39.813Z,26.00
2023-08-08T07:15:45.537Z,26.04
2023-08-08T07:16:53.544Z,26.09
2023-08-08T07:17:58.371Z,26.12
2023-08-08T07:19:06.456Z,26.17
2023-08-08T07:20:15.470Z,26.15
2023-08-08T07:21:22.982Z,26.18
2023-08-08T07:22:27.968Z,26.20
2023-08-08T07:23:38.470Z,26.18
2023-08-08T07:24:43.253Z,26.15
2023-08-08T07:25:51.862Z,26.11
2023-08-08T07:26:57.091Z,26.08
2023-08-08T07:28:04.647Z,26.03
2023-08-08T07:29:09.529Z,26.06
2023-08-08T07:30:18.232Z,26.08
2023-08-08T07:31:25.001Z,26.06
2023-08-08T07:32:33.756Z,26.08
2023-08-08T07:33:38.873Z,26.07
2023-08-08T07:34:46.341Z,25.96
2023-08-08T07:35:51.160Z,26.07
2023-08-08T07:36:59.220Z,26.01
2023-08-08T07:38:04.096Z,26.10
2023-08-08T07:39:14.342Z,26.00
2023-08-08T07:40:21.598Z,25.98
2023-08-08T07:41:29.186Z,25.89
2023-08-08T07:42:34.027Z,25.85
2023-08-08T07:44:46.429Z,25.85
2023-08-08T07:45:54.010Z,25.97
2023-08-08T07:46:58.803Z,26.00
2023-08-08T07:48:03.759Z,25.97
2023-08-08T07:49:11.366Z,25.98
2023-08-08T07:50:17.619Z,25.60
2023-08-08T07:51:25.454Z,25.84
2023-08-08T07:52:30.282Z,25.80
2023-08-08T07:53:37.801Z,25.86
2023-08-08T07:54:45.314Z,25.80
2023-08-08T07:55:53.401Z,25.86
2023-08-08T07:56:58.223Z,25.90
2023-08-08T07:58:05.779Z,25.70
2023-08-08T07:59:11.823Z,25.77
2023-08-08T08:00:20.826Z,25.70
2023-08-08T08:01:25.643Z,25.66
2023-08-08T08:02:32.161Z,25.59
2023-08-08T08:03:39.868Z,25.73
2023-08-08T08:04:45.338Z,25.75
2023-08-08T08:05:53.011Z,25.82
2023-08-08T08:06:57.789Z,25.91
2023-08-08T08:08:05.309Z,25.93
2023-08-08T08:09:10.177Z,26.00
2023-08-08T08:10:20.533Z,26.11
2023-08-08T08:11:26.298Z,26.23
2023-08-08T08:12:35.788Z,26.29
2023-08-08T08:13:40.562Z,26.34
2023-08-08T08:14:48.011Z,26.35
2023-08-08T08:15:52.924Z,26.30
2023-08-08T08:17:01.119Z,26.30
2023-08-08T08:18:06.478Z,26.28
2023-08-08T08:19:14.239Z,26.27
2023-08-08T08:20:19.077Z,26.20
2023-08-08T08:21:26.628Z,26.16
2023-08-08T08:22:31.511Z,26.15
2023-08-08T08:23:39.056Z,26.09
2023-08-08T08:24:43.869Z,26.12
2023-08-08T08:25:54.070Z,26.09
2023-08-08T08:26:58.883Z,26.07
2023-08-08T08:28:06.402Z,25.96
2023-08-08T08:29:11.242Z,26.13
2023-08-08T08:30:20.096Z,26.00
2023-08-08T08:31:25.015Z,26.10
2023-08-08T08:32:32.636Z,26.17
2023-08-08T08:33:37.593Z,26.20
2023-08-08T08:34:46.064Z,26.16
2023-08-08T08:35:50.911Z,26.15
2023-08-08T08:36:58.764Z,26.03
2023-08-08T08:38:04.160Z,26.03
2023-08-08T08:39:11.750Z,26.00
2023-08-08T08:40:17.045Z,26.05
2023-08-08T08:41:32.877Z,26.00
2023-08-08T08:42:39.453Z,26.10
2023-08-08T08:43:47.771Z,26.00
2023-08-08T08:44:53.848Z,26.05
2023-08-08T08:46:07.181Z,26.07
2023-08-08T08:47:17.243Z,26.16
2023-08-08T08:48:27.327Z,26.19
2023-08-08T08:49:33.904Z,26.17
2023-08-08T08:50:41.556Z,26.16
2023-08-08T08:51:47.098Z,26.18
2023-08-08T08:52:57.289Z,26.17
2023-08-08T08:54:02.106Z,26.21
2023-08-08T08:55:12.462Z,26.17
2023-08-08T08:56:18.600Z,26.15
2023-08-08T08:57:29.801Z,26.17
2023-08-08T08:58:34.666Z,26.07
2023-08-08T08:59:42.362Z,26.15
2023-08-08T09:00:48.871Z,26.20
2023-08-08T09:01:57.302Z,26.24
2023-08-08T09:03:02.417Z,26.25
2023-08-08T09:04:13.672Z,26.23
2023-08-08T09:05:23.829Z,26.22
2023-08-08T09:06:33.370Z,26.25
2023-08-08T09:07:39.551Z,26.26
2023-08-08T09:08:47.086Z,26.27
2023-08-08T09:09:51.956Z,26.24
2023-08-08T09:10:59.521Z,26.26
2023-08-08T09:12:06.498Z,26.25
2023-08-08T09:13:17.427Z,26.17
2023-08-08T09:14:24.709Z,26.11
2023-08-08T09:15:36.280Z,26.22
2023-08-08T09:16:41.291Z,26.06
2023-08-08T09:17:49.871Z,24.84
2023-08-08T09:18:55.934Z,25.97
2023-08-08T09:20:03.533Z,25.95
2023-08-08T09:21:10.294Z,26.00
2023-08-08T09:22:20.124Z,25.72
2023-08-08T09:23:25.254Z,26.02
2023-08-08T09:24:33.236Z,26.09
2023-08-08T09:25:38.530Z,26.06
2023-08-08T09:26:46.850Z,25.94
2023-08-08T09:27:53.083Z,25.87
2023-08-08T09:30:10.780Z,25.88
2023-08-08T09:31:18.361Z,26.01
2023-08-08T09:32:23.259Z,26.02
2023-08-08T09:33:34.785Z,26.07
2023-08-08T09:34:39.596Z,26.10
2023-08-08T09:35:47.250Z,26.02
2023-08-08T09:36:52.167Z,25.91
2023-08-08T09:37:57.082Z,25.79
2023-08-08T09:39:05.064Z,25.78
2023-08-08T09:40:13.124Z,25.79
2023-08-08T09:41:20.880Z,25.68
2023-08-08T09:42:26.380Z,25.66
2023-08-08T09:43:34.318Z,25.62
2023-08-08T09:44:41.887Z,25.28
2023-08-08T09:45:49.732Z,25.61
2023-08-08T09:46:57.881Z,25.60
2023-08-08T09:48:06.076Z,25.55
2023-08-08T09:49:13.604Z,25.54
2023-08-08T09:50:21.422Z,25.53
2023-08-08T09:51:27.779Z,25.67
2023-08-08T09:52:35.659Z,25.69
2023-08-08T09:53:42.638Z,25.69
2023-08-08T09:54:52.141Z,25.69
2023-08-08T09:55:58.776Z,25.72
2023-08-08T09:57:06.489Z,25.75
2023-08-08T09:58:11.519Z,25.70
2023-08-08T09:59:21.730Z,25.77
2023-08-08T10:00:32.169Z,25.75
2023-08-08T10:01:40.666Z,25.73
2023-08-08T10:02:47.089Z,25.85
2023-08-08T10:03:57.331Z,25.93
2023-08-08T10:05:03.644Z,25.96
2023-08-08T10:06:11.102Z,25.70
2023-08-08T10:07:16.772Z,25.72
2023-08-08T10:08:25.301Z,25.67
2023-08-08T10:09:30.830Z,25.64
2023-08-08T10:10:39.203Z,25.61
2023-08-08T10:11:46.187Z,25.61
2023-08-08T10:12:54.675Z,25.57
2023-08-08T10:14:02.194Z,25.65
2023-08-08T10:15:10.029Z,25.74
2023-08-08T10:16:23.405Z,25.70
2023-08-08T10:17:28.443Z,25.68
2023-08-08T10:18:36.274Z,25.71
2023-08-08T10:19:41.262Z,25.39
2023-08-08T10:20:52.137Z,25.68
2023-08-08T10:22:01.041Z,25.72
2023-08-08T10:23:10.076Z,25.77
2023-08-08T10:24:15.247Z,25.85
2023-08-08T10:25:29.920Z,25.84
2023-08-08T10:26:35.281Z,25.89
2023-08-08T10:27:43.257Z,25.86
2023-08-08T10:28:59.799Z,26.03
2023-08-08T10:30:12.280Z,26.00
2023-08-08T10:31:23.657Z,25.98
2023-08-08T10:32:31.174Z,26.14
2023-08-08T10:33:44.989Z,26.21
2023-08-08T10:34:52.800Z,26.23
2023-08-08T10:36:01.520Z,26.23
2023-08-08T10:37:10.391Z,26.17
2023-08-08T10:38:16.878Z,26.16
2023-08-08T10:39:25.990Z,26.10
2023-08-08T10:40:36.310Z,26.21
2023-08-08T10:41:51.714Z,26.10
2023-08-08T10:42:57.978Z,25.76
2023-08-08T10:44:05.452Z,26.25
2023-08-08T10:45:14.668Z,26.22
2023-08-08T10:46:32.073Z,26.19
2023-08-08T10:47:38.954Z,26.17
2023-08-08T10:48:57.144Z,26.26
2023-08-08T10:50:09.325Z,26.31
2023-08-08T10:51:21.194Z,26.44
2023-08-08T10:52:26.132Z,26.43
2023-08-08T10:53:35.212Z,26.45
2023-08-08T10:54:40.225Z,26.35
2023-08-08T10:55:50.944Z,26.24
2023-08-08T10:56:57.689Z,26.18
2023-08-08T10:58:11.367Z,26.22
2023-08-08T10:59:18.618Z,26.28
2023-08-08T11:00:31.265Z,26.30
2023-08-08T11:01:39.685Z,26.25
2023-08-08T11:02:47.458Z,26.23
2023-08-08T11:03:53.181Z,26.34
2023-08-08T11:05:02.659Z,26.38
2023-08-08T11:06:09.215Z,26.05
2023-08-08T11:07:20.427Z,26.14
2023-08-08T11:08:27.073Z,26.11
2023-08-08T11:09:34.632Z,26.21
2023-08-08T11:10:41.027Z,26.19
2023-08-08T11:11:50.063Z,26.29
2023-08-08T11:13:00.682Z,26.29
2023-08-08T11:14:16.315Z,26.34
2023-08-08T11:15:21.358Z,26.35
2023-08-08T11:16:30.319Z,26.38
2023-08-08T11:17:38.590Z,26.45
2023-08-08T11:18:48.269Z,26.36
2023-08-08T11:19:53.919Z,26.51
2023-08-08T11:21:09.042Z,26.52
2023-08-08T11:22:24.700Z,26.47
2023-08-08T11:23:32.182Z,26.44
2023-08-08T11:24:38.099Z,26.54
2023-08-08T11:27:12.317Z,26.48
2023-08-08T11:28:20.234Z,26.42
2023-08-08T11:29:25.525Z,26.54
2023-08-08T11:30:35.065Z,26.56
2023-08-08T11:31:40.655Z,26.67
2023-08-08T11:34:01.687Z,26.76
2023-08-08T11:35:10.799Z,26.73
2023-08-08T11:36:16.724Z,26.82
2023-08-08T11:37:24.995Z,26.84
2023-08-08T11:38:30.190Z,26.77
2023-08-08T11:39:38.077Z,26.55
2023-08-08T11:40:43.480Z,26.62
2023-08-08T11:41:52.230Z,26.70
2023-08-08T11:42:58.702Z,26.60
2023-08-08T11:44:07.589Z,26.55
2023-08-08T11:45:14.397Z,26.57
2023-08-08T11:46:22.367Z,26.66
2023-08-08T11:47:28.035Z,26.75
2023-08-08T11:48:39.016Z,26.64
2023-08-08T11:49:44.698Z,26.70
2023-08-08T11:50:52.176Z,26.77
2023-08-08T11:51:58.118Z,26.93
2023-08-08T11:53:07.114Z,26.92
2023-08-08T11:54:12.117Z,26.90
2023-08-08T11:55:22.963Z,26.54
2023-08-08T11:56:27.778Z,27.13
2023-08-08T11:57:38.269Z,27.16
2023-08-08T11:58:43.432Z,27.08
2023-08-08T11:59:53.335Z,27.18
2023-08-08T12:00:59.803Z,27.26
2023-08-08T12:02:07.567Z,27.27
2023-08-08T12:03:13.045Z,27.21
2023-08-08T12:04:27.871Z,27.13
2023-08-08T12:05:38.555Z,27.15
2023-08-08T12:06:47.336Z,27.10
2023-08-08T12:07:52.565Z,27.14
2023-08-08T12:09:00.488Z,27.20
2023-08-08T12:10:09.258Z,27.20
2023-08-08T12:11:25.412Z,27.21
2023-08-08T12:12:33.150Z,27.17
2023-08-08T12:13:44.280Z,27.24
2023-08-08T12:14:52.136Z,26.80
2023-08-08T12:16:16.850Z,27.28
2023-08-08T12:17:24.446Z,27.34
2023-08-08T12:18:32.217Z,27.46
2023-08-08T12:19:39.896Z,27.53
2023-08-08T12:20:47.389Z,27.56
2023-08-08T12:21:52.786Z,27.46
2023-08-08T12:23:00.838Z,27.47
2023-08-08T12:24:06.019Z,27.35
2023-08-08T12:25:14.542Z,27.09
2023-08-08T12:26:21.276Z,27.33
2023-08-08T12:27:28.922Z,27.37
2023-08-08T12:28:34.136Z,27.38
2023-08-08T12:29:42.323Z,27.24
2023-08-08T12:30:47.184Z,27.36
2023-08-08T12:31:54.724Z,27.32
2023-08-08T12:32:59.790Z,27.19
2023-08-08T12:34:09.569Z,27.27
2023-08-08T12:35:18.303Z,27.35
2023-08-08T12:36:26.220Z,27.29
2023-08-08T12:37:31.065Z,27.38
2023-08-08T12:38:38.601Z,27.41
2023-08-08T12:39:43.704Z,27.49
2023-08-08T12:40:51.338Z,27.64
2023-08-08T12:41:56.192Z,27.74
2023-08-08T12:43:03.894Z,27.81
2023-08-08T12:44:09.864Z,27.80
2023-08-08T12:45:17.774Z,27.78
2023-08-08T12:46:22.650Z,27.92
2023-08-08T12:47:31.242Z,27.93
2023-08-08T12:48:36.139Z,27.89
2023-08-08T12:49:44.682Z,27.85
2023-08-08T12:50:52.197Z,27.91
2023-08-08T12:52:00.256Z,28.04
2023-08-08T12:53:05.993Z,28.05
2023-08-08T12:54:14.507Z,28.02
2023-08-08T12:55:20.350Z,27.62
2023-08-08T12:56:28.129Z,27.89
2023-08-08T12:57:33.089Z,27.63
2023-08-08T12:58:40.856Z,28.03
2023-08-08T12:59:45.977Z,28.05
2023-08-08T13:00:54.184Z,28.03
2023-08-08T13:01:59.717Z,27.94
2023-08-08T13:03:07.860Z,27.88
2023-08-08T13:04:19.466Z,27.76
2023-08-08T13:05:28.008Z,27.60
2023-08-08T13:06:36.088Z,27.59
2023-08-08T13:07:43.757Z,27.72
2023-08-08T13:08:48.758Z,27.79
2023-08-08T13:09:53.803Z,27.72
2023-08-08T13:11:01.437Z,27.76
2023-08-08T13:12:06.997Z,27.82
2023-08-08T13:13:15.659Z,27.87
2023-08-08T13:14:20.541Z,27.97
2023-08-08T13:15:28.576Z,28.03
2023-08-08T13:16:33.480Z,28.10
2023-08-08T13:17:41.083Z,27.86
2023-08-08T13:18:46.685Z,27.87
2023-08-08T13:19:54.213Z,27.94
2023-08-08T13:20:59.029Z,28.08
2023-08-08T13:22:09.410Z,28.03
2023-08-08T13:23:14.323Z,28.08
2023-08-08T13:24:22.773Z,28.04
2023-08-08T13:25:27.644Z,27.88
2023-08-08T13:26:35.518Z,27.92
2023-08-08T13:27:40.359Z,27.86
2023-08-08T13:28:47.926Z,27.93
2023-08-08T13:29:52.913Z,28.04
2023-08-08T13:31:00.499Z,28.01
2023-08-08T13:32:05.627Z,28.09
2023-08-08T13:33:13.312Z,27.80
2023-08-08T13:34:18.155Z,28.22
2023-08-08T13:35:25.784Z,28.24
2023-08-08T13:36:30.660Z,28.15
2023-08-08T13:37:40.901Z,28.16
2023-08-08T13:38:45.831Z,28.10
2023-08-08T13:39:53.428Z,28.05
2023-08-08T13:40:58.250Z,28.08
2023-08-08T13:42:05.792Z,28.12
2023-08-08T13:43:10.889Z,28.20
2023-08-08T13:44:18.386Z,28.28
2023-08-08T13:45:24.514Z,28.15
2023-08-08T13:46:32.297Z,28.18
2023-08-08T13:47:37.489Z,28.29
2023-08-08T13:48:44.987Z,28.47
2023-08-08T13:49:49.872Z,28.52
2023-08-08T13:50:58.570Z,28.57
2023-08-08T13:52:04.207Z,27.65
2023-08-08T13:53:14.871Z,28.64
2023-08-08T13:54:19.742Z,28.44
2023-08-08T13:55:27.562Z,28.50
2023-08-08T13:56:32.488Z,28.59
2023-08-08T13:57:41.836Z,28.65
2023-08-08T13:58:46.809Z,28.65
2023-08-08T13:59:55.097Z,28.62
2023-08-08T14:00:59.993Z,28.70
2023-08-08T14:02:07.550Z,28.73
2023-08-08T14:03:13.797Z,28.73
2023-08-08T14:04:22.510Z,28.54
2023-08-08T14:05:28.795Z,28.78
2023-08-08T14:06:36.706Z,28.83
2023-08-08T14:07:41.543Z,28.88
2023-08-08T14:08:54.023Z,28.89
2023-08-08T14:09:58.885Z,28.91
2023-08-08T14:11:06.427Z,28.90
2023-08-08T14:12:11.416Z,29.02
2023-08-08T14:13:20.693Z,29.08
2023-08-08T14:14:25.576Z,29.04
2023-08-08T14:15:35.210Z,29.07
2023-08-08T14:16:45.578Z,29.06
2023-08-08T14:17:53.187Z,29.07
2023-08-08T14:18:58.015Z,29.11
2023-08-08T14:20:06.558Z,29.05
2023-08-08T14:21:11.346Z,28.99
2023-08-08T14:22:18.875Z,28.93
2023-08-08T14:23:23.855Z,28.81
2023-08-08T14:24:34.006Z,28.83
2023-08-08T14:25:38.877Z,28.99
2023-08-08T14:26:46.592Z,28.91
2023-08-08T14:27:51.727Z,28.98
2023-08-08T14:28:59.251Z,29.02
2023-08-08T14:30:06.176Z,29.09
2023-08-08T14:31:13.752Z,29.17
2023-08-08T14:32:19.532Z,29.24
2023-08-08T14:33:24.870Z,29.17
2023-08-08T14:34:36.511Z,29.25